Time;durP1;ratioP1;P1;durP2;ratioP2;P2;SDS_P1;SDS_P2;PMS_P1;PMS_P2;Temp;Humidity;BMP_temperature;BMP_pressure;BME280_temperature;BME280_humidity;BME280_pressure;Samples;Min_cycle;Max_cycle;Signal;HPM_P1;HPM_P2
2023/06/03 00:02:10;;;;;;;5.43;4.00;;;;;;;;;;5072486;28;20416;-44
2023/06/03 00:04:41;;;;;;;5.53;4.60;;;;;;;;;;5071789;28;20453;-45
2023/06/03 00:07:07;;;;;;;10.83;4.47;;;;;;;;;;5073668;28;20398;-44
2023/06/03 00:09:34;;;;;;;4.97;4.03;;;;;;;;;;5069093;28;20426;-44
2023/06/03 00:12:00;;;;;;;8.17;4.27;;;;;;;;;;5067052;28;20428;-43
2023/06/03 00:14:26;;;;;;;4.53;4.10;;;;;;;;;;5070257;28;20434;-43
2023/06/03 00:16:52;;;;;;;13.37;5.20;;;;;;;;;;5073777;28;20493;-43
2023/06/03 00:19:18;;;;;;;6.53;4.00;;;;;;;;;;5070610;28;20416;-43
2023/06/03 00:21:51;;;;;;;9.30;4.20;;;;;;;;;;5068929;28;20936;-44
2023/06/03 00:24:20;;;;;;;7.00;4.30;;;;;;;;;;5063696;28;20411;-44
2023/06/03 00:26:46;;;;;;;9.80;4.60;;;;;;;;;;5070285;28;20410;-44
2023/06/03 00:29:12;;;;;;;9.00;4.47;;;;;;;;;;5065933;28;20494;-44
2023/06/03 00:31:38;;;;;;;5.10;4.20;;;;;;;;;;5073567;28;20432;-43
2023/06/03 00:34:04;;;;;;;6.50;4.37;;;;;;;;;;5070241;28;20972;-44
2023/06/03 00:36:30;;;;;;;9.50;5.10;;;;;;;;;;5068073;28;20420;-44
2023/06/03 00:38:55;;;;;;;6.47;4.40;;;;;;;;;;5060494;28;20514;-43
2023/06/03 00:41:21;;;;;;;5.77;4.53;;;;;;;;;;5068662;28;20448;-43
2023/06/03 00:43:47;;;;;;;7.63;4.60;;;;;;;;;;5070250;28;20439;-43
2023/06/03 00:46:14;;;;;;;7.37;5.90;;;;;;;;;;5073341;28;20415;-44
2023/06/03 00:48:40;;;;;;;5.13;4.70;;;;;;;;;;5066848;28;20822;-43
2023/06/03 00:51:06;;;;;;;9.33;4.80;;;;;;;;;;5067415;28;20452;-43
2023/06/03 00:53:32;;;;;;;5.23;4.63;;;;;;;;;;5073089;28;20467;-43
2023/06/03 00:55:59;;;;;;;7.27;4.73;;;;;;;;;;5069660;28;20407;-44
2023/06/03 00:58:25;;;;;;;7.93;4.87;;;;;;;;;;5073119;28;20448;-43
2023/06/03 01:00:51;;;;;;;5.57;4.70;;;;;;;;;;5071720;28;20455;-43
2023/06/03 01:03:19;;;;;;;12.30;5.47;;;;;;;;;;5071419;28;20436;-44
2023/06/03 01:05:47;;;;;;;6.07;5.00;;;;;;;;;;5068644;28;20901;-44
2023/06/03 01:08:24;;;;;;;5.60;4.83;;;;;;;;;;5073052;28;20475;-43
2023/06/03 01:11:06;;;;;;;9.97;4.70;;;;;;;;;;5072970;28;20535;-44
2023/06/03 01:13:41;;;;;;;9.63;5.10;;;;;;;;;;5067719;28;20517;-44
2023/06/03 01:16:09;;;;;;;5.30;4.80;;;;;;;;;;5072801;28;20405;-44
2023/06/03 01:18:36;;;;;;;12.33;6.17;;;;;;;;;;5071103;28;20396;-43
2023/06/03 01:21:03;;;;;;;7.57;4.90;;;;;;;;;;5069257;28;20436;-43
2023/06/03 01:23:33;;;;;;;6.03;4.77;;;;;;;;;;5067385;28;20415;-43
2023/06/03 01:26:00;;;;;;;6.67;4.80;;;;;;;;;;5065687;28;20457;-44
2023/06/03 01:28:27;;;;;;;7.37;4.70;;;;;;;;;;5071768;28;20431;-44
2023/06/03 01:30:54;;;;;;;8.53;4.87;;;;;;;;;;5072602;28;20442;-43
2023/06/03 01:33:21;;;;;;;5.50;4.53;;;;;;;;;;5072293;28;20469;-44
2023/06/03 01:35:48;;;;;;;5.90;4.53;;;;;;;;;;5069598;28;20403;-44
2023/06/03 01:38:14;;;;;;;7.60;4.40;;;;;;;;;;5067396;28;20538;-44
2023/06/03 01:40:40;;;;;;;8.30;5.30;;;;;;;;;;5065734;28;20510;-43
2023/06/03 01:43:06;;;;;;;13.40;5.70;;;;;;;;;;5072377;28;20418;-44
2023/06/03 01:45:32;;;;;;;7.50;4.70;;;;;;;;;;5072442;28;20417;-43
2023/06/03 01:47:59;;;;;;;11.83;5.43;;;;;;;;;;5068906;28;20415;-44
2023/06/03 01:50:25;;;;;;;6.17;5.07;;;;;;;;;;5070033;28;20446;-44
2023/06/03 01:52:51;;;;;;;7.47;4.70;;;;;;;;;;5069455;28;20453;-44
2023/06/03 01:55:17;;;;;;;9.60;4.90;;;;;;;;;;5067018;28;20428;-43
2023/06/03 01:57:43;;;;;;;9.90;5.70;;;;;;;;;;5071541;28;20425;-43
2023/06/03 02:00:11;;;;;;;7.03;4.67;;;;;;;;;;5072620;28;20806;-44
2023/06/03 02:02:37;;;;;;;6.43;4.77;;;;;;;;;;5069195;28;20429;-44
2023/06/03 02:05:03;;;;;;;5.77;5.23;;;;;;;;;;5067642;28;20559;-43
2023/06/03 02:07:32;;;;;;;12.30;5.20;;;;;;;;;;5068266;28;20904;-44
2023/06/03 02:09:58;;;;;;;7.10;5.33;;;;;;;;;;5068796;28;20437;-43
2023/06/03 02:12:24;;;;;;;6.97;6.03;;;;;;;;;;5066274;28;20464;-43
2023/06/03 02:14:54;;;;;;;6.37;5.67;;;;;;;;;;5072757;28;20410;-43
2023/06/03 02:17:26;;;;;;;9.23;6.37;;;;;;;;;;5069468;28;20493;-44
2023/06/03 02:19:57;;;;;;;5.90;5.30;;;;;;;;;;5066550;28;20451;-43
2023/06/03 02:22:23;;;;;;;6.13;5.40;;;;;;;;;;5072365;28;20915;-43
2023/06/03 02:24:49;;;;;;;9.03;5.90;;;;;;;;;;5061823;28;20434;-44
2023/06/03 02:27:19;;;;;;;10.03;6.10;;;;;;;;;;5072499;28;20473;-43
2023/06/03 02:29:50;;;;;;;7.40;5.13;;;;;;;;;;5071414;28;20424;-43
2023/06/03 02:32:16;;;;;;;7.90;5.50;;;;;;;;;;5070679;28;20408;-43
2023/06/03 02:34:42;;;;;;;9.30;5.90;;;;;;;;;;5067701;28;20492;-43
2023/06/03 02:37:07;;;;;;;11.93;5.77;;;;;;;;;;5065497;28;20994;-43
2023/06/03 02:39:33;;;;;;;14.40;5.67;;;;;;;;;;5063716;28;20756;-43
2023/06/03 02:41:59;;;;;;;7.93;5.30;;;;;;;;;;5071345;28;20500;-43
2023/06/03 02:44:25;;;;;;;9.00;5.60;;;;;;;;;;5071146;28;20424;-43
2023/06/03 02:46:51;;;;;;;10.97;5.67;;;;;;;;;;5065774;28;20430;-44
2023/06/03 02:49:17;;;;;;;12.60;5.87;;;;;;;;;;5068195;28;20540;-44
2023/06/03 02:51:43;;;;;;;6.80;5.80;;;;;;;;;;5067634;28;20436;-43
2023/06/03 02:54:09;;;;;;;7.13;5.83;;;;;;;;;;5063537;28;20969;-43
2023/06/03 02:56:35;;;;;;;8.40;5.13;;;;;;;;;;5071256;28;20404;-43
2023/06/03 02:59:01;;;;;;;6.80;6.10;;;;;;;;;;5068740;28;20455;-42
2023/06/03 03:01:28;;;;;;;7.37;5.47;;;;;;;;;;5066003;28;20522;-44
2023/06/03 03:03:54;;;;;;;12.53;6.27;;;;;;;;;;5068892;28;20435;-43
2023/06/03 03:06:20;;;;;;;9.13;5.23;;;;;;;;;;5071393;28;20816;-43
2023/06/03 03:08:46;;;;;;;9.23;5.60;;;;;;;;;;5067975;28;20409;-43
2023/06/03 03:11:14;;;;;;;7.67;5.77;;;;;;;;;;5065408;28;20440;-43
2023/06/03 03:13:40;;;;;;;6.40;5.60;;;;;;;;;;5063616;28;20467;-43
2023/06/03 03:16:06;;;;;;;8.03;5.10;;;;;;;;;;5062854;28;20893;-43
2023/06/03 03:18:32;;;;;;;8.87;5.13;;;;;;;;;;5071149;28;20421;-43
2023/06/03 03:20:58;;;;;;;9.10;5.97;;;;;;;;;;5068566;28;20775;-44
2023/06/03 03:23:25;;;;;;;6.87;5.70;;;;;;;;;;5073010;28;20405;-44
2023/06/03 03:25:51;;;;;;;11.63;5.73;;;;;;;;;;5072643;28;20398;-43
2023/06/03 03:28:17;;;;;;;6.67;4.80;;;;;;;;;;5074780;28;20446;-43
2023/06/03 03:30:44;;;;;;;11.70;5.50;;;;;;;;;;5066565;28;20434;-43
2023/06/03 03:33:10;;;;;;;12.97;5.90;;;;;;;;;;5067509;28;20456;-43
2023/06/03 03:35:40;;;;;;;6.93;5.20;;;;;;;;;;5071792;28;20758;-43
2023/06/03 03:38:07;;;;;;;8.47;5.50;;;;;;;;;;5069388;28;20538;-43
2023/06/03 03:40:33;;;;;;;7.83;5.30;;;;;;;;;;5069844;28;20437;-44
2023/06/03 03:43:02;;;;;;;9.97;5.20;;;;;;;;;;5071150;28;20547;-43
2023/06/03 03:45:35;;;;;;;8.33;5.87;;;;;;;;;;5068584;28;20402;-44
2023/06/03 03:48:03;;;;;;;6.10;4.47;;;;;;;;;;5068797;28;20526;-43
2023/06/03 03:50:33;;;;;;;9.33;5.67;;;;;;;;;;5068561;28;20453;-44
2023/06/03 03:53:00;;;;;;;10.30;6.13;;;;;;;;;;5073247;28;20444;-44
2023/06/03 03:55:26;;;;;;;9.00;5.33;;;;;;;;;;5071843;28;20407;-44
2023/06/03 03:57:52;;;;;;;7.87;4.90;;;;;;;;;;5073194;28;20415;-43
2023/06/03 04:00:19;;;;;;;7.07;5.30;;;;;;;;;;5072040;28;20436;-43
2023/06/03 04:02:46;;;;;;;9.57;4.50;;;;;;;;;;5070218;28;20914;-43
2023/06/03 04:05:16;;;;;;;7.10;4.90;;;;;;;;;;5064800;28;20503;-43
2023/06/03 04:07:43;;;;;;;6.90;4.60;;;;;;;;;;5065775;28;20945;-43
2023/06/03 04:10:11;;;;;;;7.07;4.63;;;;;;;;;;5065874;28;20433;-43
2023/06/03 04:12:37;;;;;;;5.83;4.53;;;;;;;;;;5072792;28;20467;-44
2023/06/03 04:15:03;;;;;;;6.27;4.63;;;;;;;;;;5072934;28;20395;-43
2023/06/03 04:17:30;;;;;;;16.23;6.87;;;;;;;;;;5070364;28;20412;-43
2023/06/03 04:19:56;;;;;;;6.57;4.63;;;;;;;;;;5068612;28;20441;-43
2023/06/03 04:22:23;;;;;;;8.80;5.00;;;;;;;;;;5066852;28;20414;-44
2023/06/03 04:24:59;;;;;;;7.50;4.90;;;;;;;;;;5073596;28;20405;-43
2023/06/03 04:27:25;;;;;;;9.10;4.67;;;;;;;;;;5073629;28;20907;-43
2023/06/03 04:29:51;;;;;;;7.90;4.83;;;;;;;;;;5072474;28;20502;-43
2023/06/03 04:32:17;;;;;;;4.80;4.27;;;;;;;;;;5071873;28;20491;-43
2023/06/03 04:34:56;;;;;;;6.07;4.27;;;;;;;;;;5070010;28;20417;-43
2023/06/03 04:37:22;;;;;;;7.43;4.00;;;;;;;;;;5066760;28;20766;-43
2023/06/03 04:39:48;;;;;;;7.17;4.50;;;;;;;;;;5065125;28;20419;-43
2023/06/03 04:42:16;;;;;;;4.83;4.23;;;;;;;;;;5073092;28;20413;-44
2023/06/03 04:44:42;;;;;;;3.67;3.33;;;;;;;;;;5073319;28;20410;-43
2023/06/03 04:47:12;;;;;;;4.70;4.10;;;;;;;;;;5068538;28;20410;-43
2023/06/03 04:49:38;;;;;;;6.17;4.10;;;;;;;;;;5067706;28;20500;-43
2023/06/03 04:52:09;;;;;;;8.73;4.23;;;;;;;;;;5069654;28;20433;-43
2023/06/03 04:54:35;;;;;;;7.23;4.20;;;;;;;;;;5068794;28;20427;-43
2023/06/03 04:57:01;;;;;;;7.33;4.40;;;;;;;;;;5072249;28;20448;-43
2023/06/03 04:59:27;;;;;;;5.00;4.20;;;;;;;;;;5072216;28;20416;-43
2023/06/03 05:01:53;;;;;;;4.40;4.00;;;;;;;;;;5072859;28;20421;-43
2023/06/03 05:04:19;;;;;;;7.63;3.80;;;;;;;;;;5066475;28;20394;-44
2023/06/03 05:06:46;;;;;;;5.47;3.93;;;;;;;;;;5064838;28;20402;-44
2023/06/03 05:09:12;;;;;;;6.20;4.30;;;;;;;;;;5072854;28;20847;-43
2023/06/03 05:11:38;;;;;;;5.20;4.00;;;;;;;;;;5070739;28;20919;-43
2023/06/03 05:14:04;;;;;;;6.13;3.97;;;;;;;;;;5071900;28;20451;-43
2023/06/03 05:16:30;;;;;;;7.83;4.17;;;;;;;;;;5068189;28;20409;-43
2023/06/03 05:18:56;;;;;;;8.43;4.10;;;;;;;;;;5066438;28;20555;-43
2023/06/03 05:21:22;;;;;;;3.77;3.47;;;;;;;;;;5064864;28;20536;-43
2023/06/03 05:23:48;;;;;;;9.70;3.40;;;;;;;;;;5070439;28;20410;-44
2023/06/03 05:26:14;;;;;;;9.73;3.60;;;;;;;;;;5072544;28;20443;-43
2023/06/03 05:28:40;;;;;;;5.87;3.43;;;;;;;;;;5069009;28;20416;-44
2023/06/03 05:31:06;;;;;;;5.73;4.00;;;;;;;;;;5071217;28;20936;-43
2023/06/03 05:33:35;;;;;;;4.03;3.53;;;;;;;;;;5066966;28;20448;-43
2023/06/03 05:36:01;;;;;;;3.90;3.50;;;;;;;;;;5064707;28;20422;-44
2023/06/03 05:38:27;;;;;;;7.13;3.03;;;;;;;;;;5072216;28;20415;-43
2023/06/03 05:40:54;;;;;;;5.00;3.33;;;;;;;;;;5069597;28;20499;-43
2023/06/03 05:43:20;;;;;;;4.57;3.40;;;;;;;;;;5071390;28;20440;-43
2023/06/03 05:45:46;;;;;;;5.67;2.83;;;;;;;;;;5066110;28;20414;-43
2023/06/03 05:48:12;;;;;;;4.13;3.40;;;;;;;;;;5066120;28;20451;-43
2023/06/03 05:50:39;;;;;;;3.00;2.80;;;;;;;;;;5063740;28;20462;-43
2023/06/03 05:53:05;;;;;;;7.93;3.57;;;;;;;;;;5071604;28;20471;-42
2023/06/03 05:55:32;;;;;;;3.00;2.67;;;;;;;;;;5072052;28;20440;-43
2023/06/03 05:57:58;;;;;;;4.27;3.23;;;;;;;;;;5066272;28;20469;-43
2023/06/03 06:00:24;;;;;;;4.20;2.63;;;;;;;;;;5068009;28;20433;-43
2023/06/03 06:02:50;;;;;;;3.50;2.93;;;;;;;;;;5068061;28;20953;-43
2023/06/03 06:05:16;;;;;;;3.33;2.80;;;;;;;;;;5064009;28;20898;-43
2023/06/03 06:07:42;;;;;;;4.13;3.20;;;;;;;;;;5069952;28;20400;-43
2023/06/03 06:10:08;;;;;;;5.13;2.80;;;;;;;;;;5068335;28;20412;-43
2023/06/03 06:12:34;;;;;;;2.83;2.30;;;;;;;;;;5065653;28;20846;-44
2023/06/03 06:15:00;;;;;;;2.60;2.33;;;;;;;;;;5070324;28;20431;-43
2023/06/03 06:17:26;;;;;;;5.23;2.30;;;;;;;;;;5066042;28;20400;-43
2023/06/03 06:19:52;;;;;;;4.70;2.33;;;;;;;;;;5068513;28;20401;-44
2023/06/03 06:22:18;;;;;;;2.30;2.10;;;;;;;;;;5071598;28;20407;-43
2023/06/03 06:24:44;;;;;;;2.67;2.47;;;;;;;;;;5068902;28;20380;-43
2023/06/03 06:27:10;;;;;;;6.03;3.37;;;;;;;;;;5060317;28;20396;-43
2023/06/03 06:29:36;;;;;;;7.13;2.20;;;;;;;;;;5068386;28;20788;-43
2023/06/03 06:32:06;;;;;;;2.93;1.83;;;;;;;;;;5063655;28;20416;-43
2023/06/03 06:34:34;;;;;;;2.10;2.00;;;;;;;;;;5071123;28;20525;-43
2023/06/03 06:37:00;;;;;;;4.33;1.93;;;;;;;;;;5071345;28;20404;-44
2023/06/03 06:39:29;;;;;;;2.23;2.03;;;;;;;;;;5064300;28;20395;-43
2023/06/03 06:41:55;;;;;;;2.27;2.03;;;;;;;;;;5068066;28;20470;-43
2023/06/03 06:44:21;;;;;;;2.13;1.87;;;;;;;;;;5066838;28;20868;-43
2023/06/03 06:46:51;;;;;;;2.40;2.20;;;;;;;;;;5067262;28;20443;-43
2023/06/03 06:49:17;;;;;;;5.20;2.20;;;;;;;;;;5071372;28;20834;-44
2023/06/03 06:51:43;;;;;;;1.93;1.77;;;;;;;;;;5072363;28;20462;-43
2023/06/03 06:54:09;;;;;;;2.90;1.90;;;;;;;;;;5071427;28;20435;-43
2023/06/03 06:56:35;;;;;;;3.33;1.63;;;;;;;;;;5074423;28;20901;-43
2023/06/03 06:59:01;;;;;;;2.70;1.83;;;;;;;;;;5068115;28;20760;-43
2023/06/03 07:01:27;;;;;;;4.40;2.03;;;;;;;;;;5075193;28;20469;-44
2023/06/03 07:03:54;;;;;;;2.03;1.93;;;;;;;;;;5072583;28;20794;-43
2023/06/03 07:06:20;;;;;;;3.37;2.00;;;;;;;;;;5073922;28;20406;-43
2023/06/03 07:08:46;;;;;;;3.30;2.00;;;;;;;;;;5074295;28;20403;-43
2023/06/03 07:11:12;;;;;;;3.80;1.63;;;;;;;;;;5075076;28;20806;-44
2023/06/03 07:13:38;;;;;;;2.10;1.90;;;;;;;;;;5067611;28;20901;-44
2023/06/03 07:16:04;;;;;;;3.23;1.80;;;;;;;;;;5074808;28;20442;-43
2023/06/03 07:18:29;;;;;;;4.13;1.97;;;;;;;;;;5072847;28;20390;-44
2023/06/03 07:20:55;;;;;;;3.10;2.10;;;;;;;;;;5071096;28;20525;-43
2023/06/03 07:23:24;;;;;;;3.33;2.13;;;;;;;;;;5074617;28;20394;-43
2023/06/03 07:25:51;;;;;;;2.60;1.90;;;;;;;;;;5074892;28;20427;-44
2023/06/03 07:28:18;;;;;;;1.57;1.47;;;;;;;;;;5074747;28;20422;-44
2023/06/03 07:30:45;;;;;;;1.90;1.70;;;;;;;;;;5073440;28;20424;-43
2023/06/03 07:33:26;;;;;;;2.90;2.10;;;;;;;;;;5066055;28;20471;-43
2023/06/03 07:35:53;;;;;;;2.07;1.60;;;;;;;;;;5070105;28;20955;-43
2023/06/03 07:38:45;;;;;;;2.33;1.70;;;;;;;;;;5072042;28;20400;-43
2023/06/03 07:41:11;;;;;;;2.20;1.60;;;;;;;;;;5050085;28;20782;-43
2023/06/03 07:43:40;;;;;;;2.43;2.13;;;;;;;;;;5074285;28;20383;-43
2023/06/03 07:46:07;;;;;;;3.13;1.43;;;;;;;;;;5074437;28;20416;-45
2023/06/03 07:48:40;;;;;;;4.33;1.60;;;;;;;;;;5071737;28;20383;-43
2023/06/03 07:51:06;;;;;;;8.10;2.30;;;;;;;;;;5069710;28;20913;-44
2023/06/03 07:53:35;;;;;;;1.83;1.43;;;;;;;;;;5064777;28;20518;-44
2023/06/03 07:56:05;;;;;;;3.43;1.93;;;;;;;;;;5065265;28;20438;-43
2023/06/03 07:58:35;;;;;;;2.00;1.73;;;;;;;;;;5072165;28;20901;-43
2023/06/03 08:01:01;;;;;;;3.07;1.57;;;;;;;;;;5071466;28;20463;-43
2023/06/03 08:03:27;;;;;;;3.07;1.93;;;;;;;;;;5073601;28;20431;-44
2023/06/03 08:05:53;;;;;;;6.57;2.07;;;;;;;;;;5074165;28;20482;-44
2023/06/03 08:08:19;;;;;;;1.73;1.50;;;;;;;;;;5067060;28;20387;-43
2023/06/03 08:10:46;;;;;;;2.50;1.70;;;;;;;;;;5066156;28;20440;-44
2023/06/03 08:13:12;;;;;;;3.83;1.57;;;;;;;;;;5072639;28;20519;-44
2023/06/03 08:15:39;;;;;;;3.20;2.07;;;;;;;;;;5071238;28;20392;-45
2023/06/03 08:18:05;;;;;;;2.43;1.87;;;;;;;;;;5069483;28;20877;-44
2023/06/03 08:20:32;;;;;;;2.80;1.40;;;;;;;;;;5069291;28;20963;-44
2023/06/03 08:22:58;;;;;;;3.87;1.37;;;;;;;;;;5070633;28;20409;-44
2023/06/03 08:25:24;;;;;;;1.73;1.40;;;;;;;;;;5068316;28;20415;-43
2023/06/03 08:27:51;;;;;;;1.73;1.60;;;;;;;;;;5072766;28;20420;-44
2023/06/03 08:30:22;;;;;;;5.33;1.70;;;;;;;;;;5070846;28;20455;-44
2023/06/03 08:32:49;;;;;;;2.77;1.30;;;;;;;;;;5073314;28;20989;-44
2023/06/03 08:35:16;;;;;;;4.63;1.40;;;;;;;;;;5067646;28;20423;-44
2023/06/03 08:37:42;;;;;;;4.37;1.50;;;;;;;;;;5066248;28;20849;-44
2023/06/03 08:40:10;;;;;;;3.20;1.57;;;;;;;;;;5073176;28;20790;-44
2023/06/03 08:42:45;;;;;;;1.53;1.40;;;;;;;;;;5073177;28;20989;-44
2023/06/03 08:45:13;;;;;;;1.57;1.40;;;;;;;;;;5065466;28;20408;-44
2023/06/03 08:47:45;;;;;;;3.33;1.83;;;;;;;;;;5073260;28;20414;-44
2023/06/03 08:50:11;;;;;;;3.40;1.50;;;;;;;;;;5064938;28;20455;-44
2023/06/03 08:52:40;;;;;;;4.57;1.70;;;;;;;;;;5065416;28;20413;-44
2023/06/03 08:55:06;;;;;;;1.40;1.20;;;;;;;;;;5073169;28;20396;-43
2023/06/03 08:57:34;;;;;;;2.30;1.40;;;;;;;;;;5073162;28;20408;-45
2023/06/03 09:00:01;;;;;;;4.03;1.70;;;;;;;;;;5067748;28;20449;-45
2023/06/03 09:02:27;;;;;;;1.67;1.40;;;;;;;;;;5068534;28;20427;-45
2023/06/03 09:04:54;;;;;;;3.57;1.70;;;;;;;;;;5070401;28;20408;-44
2023/06/03 09:07:21;;;;;;;1.70;1.47;;;;;;;;;;5066096;28;20399;-45
2023/06/03 09:09:47;;;;;;;1.53;1.40;;;;;;;;;;5072839;28;20919;-44
2023/06/03 09:12:13;;;;;;;4.40;1.57;;;;;;;;;;5070289;28;20446;-44
2023/06/03 09:14:39;;;;;;;1.50;1.40;;;;;;;;;;5072623;28;20461;-45
2023/06/03 09:17:05;;;;;;;2.13;1.57;;;;;;;;;;5073104;28;20427;-45
2023/06/03 09:19:32;;;;;;;1.53;1.40;;;;;;;;;;5067502;28;20445;-45
2023/06/03 09:21:58;;;;;;;2.50;1.40;;;;;;;;;;5053241;28;20455;-45
2023/06/03 09:24:25;;;;;;;4.13;1.50;;;;;;;;;;5069737;28;20415;-45
2023/06/03 09:26:51;;;;;;;3.43;1.97;;;;;;;;;;5073604;28;20511;-45
2023/06/03 09:29:18;;;;;;;2.27;1.30;;;;;;;;;;5071493;28;20848;-44
2023/06/03 09:31:44;;;;;;;4.40;1.77;;;;;;;;;;5071875;28;20456;-45
2023/06/03 09:34:10;;;;;;;4.20;1.50;;;;;;;;;;5072349;28;20973;-45
2023/06/03 09:36:47;;;;;;;1.40;1.30;;;;;;;;;;5073663;28;20431;-44
2023/06/03 09:39:17;;;;;;;1.77;1.60;;;;;;;;;;5074123;28;20415;-44
2023/06/03 09:41:44;;;;;;;1.87;1.67;;;;;;;;;;5073551;28;20444;-45
2023/06/03 09:44:10;;;;;;;3.27;1.40;;;;;;;;;;5071599;28;20476;-44
2023/06/03 09:46:37;;;;;;;4.40;2.90;;;;;;;;;;5060178;28;20424;-44
2023/06/03 09:49:14;;;;;;;2.90;1.50;;;;;;;;;;5073198;28;20995;-44
2023/06/03 09:51:44;;;;;;;5.13;1.80;;;;;;;;;;5073041;28;20458;-44
2023/06/03 09:54:15;;;;;;;2.63;1.60;;;;;;;;;;5063563;28;20456;-45
2023/06/03 09:56:41;;;;;;;3.70;1.70;;;;;;;;;;5068250;28;20784;-43
2023/06/03 09:59:13;;;;;;;1.97;1.50;;;;;;;;;;5069527;28;20434;-44
2023/06/03 10:01:40;;;;;;;2.60;1.87;;;;;;;;;;5069257;28;20534;-44
2023/06/03 10:04:06;;;;;;;3.20;1.67;;;;;;;;;;5071854;28;20452;-44
2023/06/03 10:06:35;;;;;;;1.63;1.40;;;;;;;;;;5068116;28;20448;-44
2023/06/03 10:09:17;;;;;;;4.87;1.70;;;;;;;;;;5069912;28;20978;-44
2023/06/03 10:11:53;;;;;;;4.40;1.80;;;;;;;;;;5068446;28;20424;-45
2023/06/03 10:14:25;;;;;;;5.03;1.70;;;;;;;;;;5065058;28;20943;-44
2023/06/03 10:17:10;;;;;;;3.20;1.57;;;;;;;;;;5064642;28;20412;-44
2023/06/03 10:19:37;;;;;;;3.30;1.80;;;;;;;;;;5071678;28;20412;-44
2023/06/03 10:22:04;;;;;;;3.17;1.50;;;;;;;;;;5069586;28;20412;-44
2023/06/03 10:24:30;;;;;;;2.20;1.70;;;;;;;;;;5067859;28;20416;-44
2023/06/03 10:26:56;;;;;;;3.83;1.57;;;;;;;;;;5066047;28;20421;-43
2023/06/03 10:29:23;;;;;;;3.50;1.60;;;;;;;;;;5067430;28;20470;-44
2023/06/03 10:34:25;;;;;;;3.00;1.40;;;;;;;;;;5403516;22;20700;-45
2023/06/03 10:36:52;;;;;;;1.60;1.50;;;;;;;;;;5031422;28;20438;-45
2023/06/03 10:39:18;;;;;;;3.83;1.40;;;;;;;;;;5031416;28;20520;-44
2023/06/03 10:41:44;;;;;;;1.63;1.53;;;;;;;;;;5023547;28;21023;-45
2023/06/03 10:44:10;;;;;;;2.27;2.07;;;;;;;;;;5029422;28;20438;-44
2023/06/03 10:46:37;;;;;;;3.67;1.80;;;;;;;;;;5019463;28;20419;-44
2023/06/03 10:49:05;;;;;;;5.10;1.33;;;;;;;;;;5021092;28;20526;-46
2023/06/03 10:51:43;;;;;;;3.23;1.90;;;;;;;;;;5019646;28;20419;-45
2023/06/03 10:54:17;;;;;;;2.27;1.57;;;;;;;;;;5014922;28;20588;-45
2023/06/03 10:56:47;;;;;;;2.03;1.40;;;;;;;;;;5015003;28;20793;-45
2023/06/03 10:59:17;;;;;;;1.93;1.53;;;;;;;;;;5019390;28;20845;-45
2023/06/03 11:02:03;;;;;;;3.97;1.90;;;;;;;;;;5014682;28;20419;-44
2023/06/03 11:04:31;;;;;;;2.07;1.87;;;;;;;;;;5020209;28;20433;-45
2023/06/03 11:06:57;;;;;;;2.17;1.50;;;;;;;;;;5012109;28;21058;-45
2023/06/03 11:09:30;;;;;;;3.03;1.50;;;;;;;;;;5020003;28;20489;-45
2023/06/03 11:12:02;;;;;;;2.17;1.40;;;;;;;;;;5021286;28;20426;-45
2023/06/03 11:14:32;;;;;;;2.00;1.90;;;;;;;;;;5019017;28;20896;-45
2023/06/03 11:17:01;;;;;;;2.60;1.87;;;;;;;;;;5019227;28;20945;-45
2023/06/03 11:19:31;;;;;;;3.00;1.60;;;;;;;;;;5020674;28;20411;-44
2023/06/03 11:21:57;;;;;;;2.37;1.53;;;;;;;;;;5019813;28;20450;-45
2023/06/03 11:24:42;;;;;;;2.60;1.30;;;;;;;;;;5019829;28;20484;-45
2023/06/03 11:27:14;;;;;;;1.80;1.70;;;;;;;;;;5022197;28;20462;-45
2023/06/03 11:32:19;;;;;;;4.30;1.73;;;;;;;;;;5016738;28;20419;-45
2023/06/03 11:34:46;;;;;;;1.77;1.30;;;;;;;;;;5008109;28;20458;-45
2023/06/03 11:37:14;;;;;;;4.33;1.60;;;;;;;;;;5026188;28;20940;-45
2023/06/03 11:40:00;;;;;;;1.90;1.70;;;;;;;;;;5020864;28;20928;-45
2023/06/03 11:42:26;;;;;;;1.70;1.50;;;;;;;;;;5020198;28;20403;-45
2023/06/03 11:44:51;;;;;;;2.47;2.33;;;;;;;;;;5024441;28;20410;-45
2023/06/03 11:47:17;;;;;;;6.30;1.40;;;;;;;;;;5022916;28;20468;-46
2023/06/03 11:49:43;;;;;;;1.67;1.57;;;;;;;;;;5021928;28;20410;-47
2023/06/03 11:52:10;;;;;;;1.47;1.30;;;;;;;;;;5021607;28;20414;-47
2023/06/03 11:54:37;;;;;;;2.37;2.17;;;;;;;;;;5022591;28;20474;-47
2023/06/03 11:57:03;;;;;;;2.90;1.70;;;;;;;;;;5025248;28;20413;-47
2023/06/03 11:59:32;;;;;;;2.33;1.63;;;;;;;;;;5020828;28;20871;-46
2023/06/03 12:01:59;;;;;;;1.87;1.63;;;;;;;;;;5021668;28;20411;-47
2023/06/03 12:04:25;;;;;;;4.73;2.10;;;;;;;;;;5023022;28;20533;-47
2023/06/03 12:06:52;;;;;;;1.40;1.30;;;;;;;;;;5032902;28;20789;-47
2023/06/03 12:09:22;;;;;;;2.00;1.40;;;;;;;;;;4997565;28;20959;-47
2023/06/03 12:11:48;;;;;;;3.53;1.63;;;;;;;;;;4995094;28;20532;-47
2023/06/03 12:14:27;;;;;;;2.47;1.40;;;;;;;;;;4994350;28;20474;-47
2023/06/03 12:16:54;;;;;;;4.70;1.30;;;;;;;;;;4994705;28;20412;-46
2023/06/03 12:19:21;;;;;;;4.40;1.70;;;;;;;;;;5006605;28;20423;-47
2023/06/03 12:21:55;;;;;;;2.60;1.47;;;;;;;;;;5014341;28;20413;-46
2023/06/03 12:24:26;;;;;;;2.50;1.70;;;;;;;;;;5013870;28;20443;-46
2023/06/03 12:26:54;;;;;;;2.07;1.70;;;;;;;;;;5014246;28;20407;-46
2023/06/03 12:29:20;;;;;;;1.53;1.43;;;;;;;;;;5002263;28;20925;-46
2023/06/03 12:31:56;;;;;;;2.07;1.87;;;;;;;;;;5013432;28;20626;-47
2023/06/03 12:34:33;;;;;;;1.40;1.30;;;;;;;;;;5013468;28;20470;-46
2023/06/03 12:37:00;;;;;;;1.67;1.57;;;;;;;;;;5013968;28;20469;-47
2023/06/03 12:39:39;;;;;;;4.73;1.50;;;;;;;;;;5013953;28;20527;-47
2023/06/03 12:42:06;;;;;;;2.60;1.50;;;;;;;;;;5013993;28;20421;-46
2023/06/03 12:44:41;;;;;;;1.50;1.20;;;;;;;;;;5013527;28;20461;-46
2023/06/03 12:47:07;;;;;;;1.93;1.37;;;;;;;;;;5013696;28;20411;-46
2023/06/03 12:49:33;;;;;;;1.40;1.30;;;;;;;;;;5012973;28;20438;-46
2023/06/03 12:52:09;;;;;;;1.60;1.50;;;;;;;;;;5013669;28;20410;-47
2023/06/03 12:54:35;;;;;;;2.37;1.47;;;;;;;;;;5012939;28;20465;-46
2023/06/03 12:57:02;;;;;;;1.67;1.57;;;;;;;;;;5013487;28;20495;-46
2023/06/03 12:59:28;;;;;;;1.60;1.27;;;;;;;;;;5013379;28;20415;-46
2023/06/03 13:01:54;;;;;;;1.50;1.30;;;;;;;;;;5013827;28;20773;-46
2023/06/03 13:04:19;;;;;;;8.50;1.70;;;;;;;;;;5013251;28;20571;-46
2023/06/03 13:06:45;;;;;;;1.37;1.27;;;;;;;;;;5013308;28;20427;-46
2023/06/03 13:09:12;;;;;;;1.70;1.40;;;;;;;;;;5013407;28;20422;-46
2023/06/03 13:11:37;;;;;;;1.30;1.20;;;;;;;;;;5013290;28;20176;-46
2023/06/03 13:14:03;;;;;;;3.20;1.83;;;;;;;;;;5012811;28;20466;-46
2023/06/03 13:16:30;;;;;;;1.70;1.40;;;;;;;;;;5013379;28;20425;-45
2023/06/03 13:18:56;;;;;;;1.80;1.30;;;;;;;;;;5011340;28;20508;-45
2023/06/03 13:21:22;;;;;;;1.53;1.43;;;;;;;;;;5012599;28;20427;-45
2023/06/03 13:23:48;;;;;;;3.30;1.90;;;;;;;;;;5012819;28;20442;-46
2023/06/03 13:26:14;;;;;;;2.77;1.43;;;;;;;;;;5013071;28;20407;-45
2023/06/03 13:28:40;;;;;;;3.10;1.60;;;;;;;;;;5009731;28;20415;-45
2023/06/03 13:31:06;;;;;;;3.03;1.27;;;;;;;;;;4993636;28;20438;-45
2023/06/03 13:33:33;;;;;;;1.50;1.40;;;;;;;;;;4996589;28;20693;-45
2023/06/03 13:35:59;;;;;;;2.03;1.23;;;;;;;;;;5023571;28;20517;-45
2023/06/03 13:38:24;;;;;;;1.63;1.50;;;;;;;;;;5024073;28;20437;-45
2023/06/03 13:40:50;;;;;;;4.43;1.60;;;;;;;;;;5018858;28;20900;-45
2023/06/03 13:43:16;;;;;;;2.67;1.20;;;;;;;;;;5023894;28;20546;-45
2023/06/03 13:45:42;;;;;;;1.10;0.90;;;;;;;;;;5022394;28;20425;-44
2023/06/03 13:48:09;;;;;;;1.40;1.30;;;;;;;;;;5022266;28;20281;-45
2023/06/03 13:50:35;;;;;;;1.40;1.30;;;;;;;;;;5022105;28;20488;-45
2023/06/03 13:53:00;;;;;;;3.83;1.43;;;;;;;;;;5018673;28;20556;-46
2023/06/03 13:55:26;;;;;;;2.00;0.90;;;;;;;;;;5022789;28;20183;-45
2023/06/03 13:57:52;;;;;;;1.20;1.10;;;;;;;;;;5017102;28;20449;-46
2023/06/03 14:00:18;;;;;;;2.80;1.43;;;;;;;;;;5022352;28;20780;-45
2023/06/03 14:02:44;;;;;;;1.67;1.40;;;;;;;;;;5020634;28;20183;-45
2023/06/03 14:05:10;;;;;;;5.90;1.40;;;;;;;;;;5019417;28;20415;-45
2023/06/03 14:07:36;;;;;;;2.73;1.40;;;;;;;;;;5022143;28;20411;-45
2023/06/03 14:10:05;;;;;;;2.30;1.30;;;;;;;;;;5020518;28;20259;-45
2023/06/03 14:12:31;;;;;;;2.23;1.20;;;;;;;;;;5020272;28;20486;-45
2023/06/03 14:14:57;;;;;;;2.50;1.07;;;;;;;;;;5018383;28;20554;-45
2023/06/03 14:17:23;;;;;;;1.20;0.90;;;;;;;;;;5025210;28;20444;-45
2023/06/03 14:19:49;;;;;;;1.30;1.20;;;;;;;;;;5017948;28;20465;-45
2023/06/03 14:22:15;;;;;;;6.10;1.30;;;;;;;;;;5013553;28;20503;-45
2023/06/03 14:24:44;;;;;;;2.50;1.30;;;;;;;;;;5019960;28;20987;-45
2023/06/03 14:27:10;;;;;;;1.10;1.00;;;;;;;;;;5019582;28;20445;-45
2023/06/03 14:29:36;;;;;;;2.10;1.13;;;;;;;;;;5024000;28;20406;-46
2023/06/03 14:32:02;;;;;;;1.20;1.10;;;;;;;;;;5017133;28;20176;-46
2023/06/03 14:34:28;;;;;;;1.77;0.93;;;;;;;;;;5023075;28;20540;-46
2023/06/03 14:36:54;;;;;;;1.20;1.00;;;;;;;;;;5018488;28;20430;-46
2023/06/03 14:39:20;;;;;;;1.10;0.90;;;;;;;;;;5015427;28;20407;-46
2023/06/03 14:41:46;;;;;;;1.10;0.97;;;;;;;;;;5021938;28;20861;-46
2023/06/03 14:44:12;;;;;;;1.67;1.07;;;;;;;;;;5020944;28;20426;-46
2023/06/03 14:46:38;;;;;;;1.77;1.03;;;;;;;;;;5022751;28;20186;-45
2023/06/03 14:49:04;;;;;;;1.10;1.00;;;;;;;;;;5020673;28;20411;-45
2023/06/03 14:51:30;;;;;;;3.87;1.30;;;;;;;;;;5021218;28;20191;-46